Trans Exeter — 9HA2572 — position and weather

sailwx.info

Track history (hours):
 
Tides and Currents Weather Stations Pressure Air Temp Water Temp Dewpoint Dewpoint Depression Visibility Wind Speed Wind Dir Waves Ship Positions

Trans Exeter

Last reported at 2015-Mar-25 18:25 UTC. Time now 2015-Mar-27 06:56 UTC.
Position N 40°53' E 028°33'.

Length 118 m; draft 5.1 m.

Type: Ship (hazmat cat C). MMSI: 248908000.

Date/timePositionNaut miles runAvg speedWind from/ knotsBaromVisibWave heightAir tempDewpointWater temp
2015-Mar-25 18:25N 40°53' E 028°33'1212.9
2015-Mar-25 17:31N 40°55' E 028°48'3 1.1
2015-Mar-25 14:31N 40°56' E 028°52'1 0.4
2015-Mar-25 12:13N 40°56' E 028°52'7 9.9
2015-Mar-25 11:30N 40°51' E 028°59'1213.0
2015-Mar-25 10:33N 40°46' E 029°14'9 9.0
2015-Mar-25 09:33N 40°42' E 029°25'0 0.0
2015-Mar-24 13:10N 40°42' E 029°25'0 0.0
2015-Mar-24 07:16N 40°42' E 029°25'0 0.0
2015-Mar-24 06:16N 40°42' E 029°25'2 3.1
2015-Mar-24 05:33N 40°44' E 029°23'1312.6
2015-Mar-24 04:33N 40°43' E 029°06'1514.4
2015-Mar-24 03:32N 40°43' E 028°47'  
2015-Mar-16 12:27N 36°38' E 014°35'1112.0
2015-Mar-16 11:33N 36°42' E 014°22'1211.8
2015-Mar-16 10:33N 36°47' E 014°09'1212.0
2015-Mar-16 09:33N 36°53' E 013°56'1111.2
2015-Mar-16 08:33N 36°58' E 013°44'  
Track history (hours):
 
Tides and Currents Weather Stations Pressure Air Temp Water Temp Dewpoint Dewpoint Depression Visibility Wind Speed Wind Dir Waves Ship Positions

Trans Exeter

Last reported at 2015-Mar-25 18:25 UTC. Time now 2015-Mar-27 06:56 UTC.
Position N 40°53' E 028°33'.

Length 118 m; draft 5.1 m.

Type: Ship (hazmat cat C). MMSI: 248908000.

Date/timePositionNaut miles runAvg speedWind from/ knotsBaromVisibWave heightAir tempDewpointWater temp
2015-Mar-25 18:25N 40°53' E 028°33'1212.9
2015-Mar-25 17:31N 40°55' E 028°48'3 1.1
2015-Mar-25 14:31N 40°56' E 028°52'1 0.4
2015-Mar-25 12:13N 40°56' E 028°52'7 9.9
2015-Mar-25 11:30N 40°51' E 028°59'1213.0
2015-Mar-25 10:33N 40°46' E 029°14'9 9.0
2015-Mar-25 09:33N 40°42' E 029°25'0 0.0
2015-Mar-24 13:10N 40°42' E 029°25'0 0.0
2015-Mar-24 07:16N 40°42' E 029°25'0 0.0
2015-Mar-24 06:16N 40°42' E 029°25'2 3.1
2015-Mar-24 05:33N 40°44' E 029°23'1312.6
2015-Mar-24 04:33N 40°43' E 029°06'1514.4
2015-Mar-24 03:32N 40°43' E 028°47'  
2015-Mar-16 12:27N 36°38' E 014°35'1112.0
2015-Mar-16 11:33N 36°42' E 014°22'1211.8
2015-Mar-16 10:33N 36°47' E 014°09'1212.0
2015-Mar-16 09:33N 36°53' E 013°56'1111.2
2015-Mar-16 08:33N 36°58' E 013°44'  

Dump ship's entire track history